createdAt,value
2023-05-09T00:00:58.645Z,820.00
2023-05-09T00:01:58.798Z,821.00
2023-05-09T00:02:58.777Z,820.00
2023-05-09T00:03:58.839Z,821.00
2023-05-09T00:04:58.874Z,818.00
2023-05-09T00:05:58.968Z,827.00
2023-05-09T00:06:58.960Z,827.00
2023-05-09T00:07:59.016Z,832.00
2023-05-09T00:08:59.057Z,814.00
2023-05-09T00:09:59.103Z,814.00
2023-05-09T00:10:59.156Z,816.00
2023-05-09T00:11:59.207Z,816.00
2023-05-09T00:12:59.306Z,820.00
2023-05-09T00:13:59.306Z,813.00
2023-05-09T00:14:59.344Z,816.00
2023-05-09T00:15:59.403Z,808.00
2023-05-09T00:16:59.455Z,814.00
2023-05-09T00:17:59.697Z,800.00
2023-05-09T00:18:59.525Z,807.00
2023-05-09T00:19:59.578Z,819.00
2023-05-09T00:20:59.629Z,815.00
2023-05-09T00:21:59.673Z,811.00
2023-05-09T00:22:59.757Z,811.00
2023-05-09T00:23:59.781Z,811.00
2023-05-09T00:24:59.825Z,806.00
2023-05-09T00:25:59.872Z,811.00
2023-05-09T00:26:59.916Z,798.00
2023-05-09T00:27:59.965Z,804.00
2023-05-09T00:29:00.014Z,800.00
2023-05-09T00:30:00.503Z,811.00
2023-05-09T00:31:00.250Z,792.00
2023-05-09T00:32:00.241Z,806.00
2023-05-09T00:33:00.263Z,798.00
2023-05-09T00:34:00.330Z,798.00
2023-05-09T00:35:00.300Z,795.00
2023-05-09T00:36:00.352Z,787.00
2023-05-09T00:37:00.389Z,804.00
2023-05-09T00:38:00.437Z,782.00
2023-05-09T00:39:00.478Z,784.00
2023-05-09T00:40:00.544Z,791.00
2023-05-09T00:41:00.594Z,790.00
2023-05-09T00:42:00.627Z,784.00
2023-05-09T00:43:00.681Z,795.00
2023-05-09T00:44:00.719Z,781.00
2023-05-09T00:45:01.015Z,787.00
2023-05-09T00:46:00.848Z,785.00
2023-05-09T00:47:00.876Z,777.00
2023-05-09T00:48:00.977Z,781.00
2023-05-09T00:49:00.969Z,781.00
2023-05-09T00:50:01.107Z,790.00
2023-05-09T00:51:01.058Z,788.00
2023-05-09T00:52:01.108Z,777.00
2023-05-09T00:53:01.153Z,776.00
2023-05-09T00:54:01.206Z,780.00
2023-05-09T00:55:01.245Z,780.00
2023-05-09T00:56:01.291Z,778.00
2023-05-09T00:57:01.389Z,776.00
2023-05-09T00:58:01.394Z,771.00
2023-05-09T00:59:01.440Z,773.00
2023-05-09T01:00:01.498Z,780.00
2023-05-09T01:01:01.571Z,779.00
2023-05-09T01:02:01.595Z,771.00
2023-05-09T01:03:01.702Z,780.00
2023-05-09T01:04:01.689Z,766.00
2023-05-09T01:05:01.739Z,765.00
2023-05-09T01:06:01.789Z,776.00
2023-05-09T01:07:01.845Z,775.00
2023-05-09T01:08:01.904Z,768.00
2023-05-09T01:09:01.943Z,773.00
2023-05-09T01:10:01.989Z,774.00
2023-05-09T01:11:02.041Z,776.00
2023-05-09T01:12:02.085Z,782.00
2023-05-09T01:13:02.211Z,769.00
2023-05-09T01:14:02.202Z,769.00
2023-05-09T01:15:02.252Z,770.00
2023-05-09T01:16:02.316Z,770.00
2023-05-09T01:17:02.335Z,768.00
2023-05-09T01:18:02.427Z,763.00
2023-05-09T01:19:02.445Z,773.00
2023-05-09T01:20:02.520Z,767.00
2023-05-09T01:21:02.533Z,770.00
2023-05-09T01:22:02.669Z,764.00
2023-05-09T01:23:02.646Z,760.00
2023-05-09T01:24:02.691Z,750.00
2023-05-09T01:25:02.728Z,758.00
2023-05-09T01:26:02.787Z,751.00
2023-05-09T01:27:02.831Z,768.00
2023-05-09T01:28:02.898Z,758.00
2023-05-09T01:29:02.936Z,748.00
2023-05-09T01:30:03.031Z,757.00
2023-05-09T01:31:03.200Z,759.00
2023-05-09T01:32:03.105Z,755.00
2023-05-09T01:33:03.177Z,748.00
2023-05-09T01:34:03.210Z,759.00
2023-05-09T01:35:03.267Z,743.00
2023-05-09T01:36:03.319Z,752.00
2023-05-09T01:37:03.352Z,762.00
2023-05-09T01:38:03.496Z,750.00
2023-05-09T01:39:03.462Z,752.00
2023-05-09T01:40:03.526Z,741.00
2023-05-09T01:41:03.548Z,745.00
2023-05-09T01:42:03.607Z,742.00
2023-05-09T01:43:03.660Z,747.00
2023-05-09T01:44:03.762Z,749.00
2023-05-09T01:45:03.763Z,742.00
2023-05-09T01:46:03.831Z,737.00
2023-05-09T01:47:03.871Z,749.00
2023-05-09T01:48:03.947Z,737.00
2023-05-09T01:49:03.958Z,743.00
2023-05-09T01:50:04.013Z,734.00
2023-05-09T01:51:04.072Z,746.00
2023-05-09T01:52:04.118Z,740.00
2023-05-09T01:53:04.164Z,726.00
2023-05-09T01:54:04.307Z,731.00
2023-05-09T01:55:04.271Z,737.00
2023-05-09T01:56:04.301Z,736.00
2023-05-09T01:57:04.369Z,729.00
2023-05-09T01:58:04.427Z,724.00
2023-05-09T01:59:04.457Z,728.00
2023-05-09T02:00:04.513Z,734.00
2023-05-09T02:01:04.639Z,737.00
2023-05-09T02:02:04.635Z,723.00
2023-05-09T02:03:04.707Z,716.00
2023-05-09T02:04:04.698Z,717.00
2023-05-09T02:05:04.749Z,730.00
2023-05-09T02:06:04.803Z,723.00
2023-05-09T02:07:04.863Z,725.00
2023-05-09T02:08:04.898Z,728.00
2023-05-09T02:09:04.954Z,725.00
2023-05-09T02:10:05.110Z,723.00
2023-05-09T02:11:05.920Z,717.00
2023-05-09T02:12:05.086Z,722.00
2023-05-09T02:13:05.202Z,720.00
2023-05-09T02:14:05.194Z,723.00
2023-05-09T02:15:05.243Z,708.00
2023-05-09T02:16:05.301Z,718.00
2023-05-09T02:17:05.378Z,721.00
2023-05-09T02:18:05.437Z,703.00
2023-05-09T02:19:05.426Z,722.00
2023-05-09T02:20:05.473Z,712.00
2023-05-09T02:21:05.554Z,718.00
2023-05-09T02:22:05.576Z,709.00
2023-05-09T02:23:05.625Z,714.00
2023-05-09T02:24:05.691Z,702.00
2023-05-09T02:25:05.715Z,703.00
2023-05-09T02:26:05.912Z,715.00
2023-05-09T02:27:05.805Z,708.00
2023-05-09T02:28:05.942Z,701.00
2023-05-09T02:29:05.960Z,708.00
2023-05-09T02:30:05.970Z,703.00
2023-05-09T02:31:06.061Z,695.00
2023-05-09T02:32:06.068Z,706.00
2023-05-09T02:33:06.251Z,692.00
2023-05-09T02:34:06.189Z,699.00
2023-05-09T02:35:06.204Z,712.00
2023-05-09T02:36:06.257Z,692.00
2023-05-09T02:37:06.308Z,699.00
2023-05-09T02:38:06.362Z,707.00
2023-05-09T02:39:06.407Z,698.00
2023-05-09T02:40:06.491Z,698.00
2023-05-09T02:41:06.507Z,699.00
2023-05-09T02:42:06.645Z,693.00
2023-05-09T02:43:06.604Z,690.00
2023-05-09T02:44:06.657Z,695.00
2023-05-09T02:45:06.703Z,695.00
2023-05-09T02:46:06.785Z,694.00
2023-05-09T02:47:06.811Z,688.00
2023-05-09T02:48:08.733Z,694.00
2023-05-09T02:49:06.884Z,694.00
2023-05-09T02:50:07.009Z,686.00
2023-05-09T02:51:06.980Z,678.00
2023-05-09T02:52:07.035Z,682.00
2023-05-09T02:53:07.087Z,685.00
2023-05-09T02:54:07.149Z,692.00
2023-05-09T02:55:07.186Z,692.00
2023-05-09T02:56:07.227Z,693.00
2023-05-09T02:57:07.282Z,678.00
2023-05-09T02:58:14.077Z,689.00
2023-05-09T02:59:08.336Z,689.00
2023-05-09T03:00:07.385Z,689.00
2023-05-09T03:01:07.322Z,689.00
2023-05-09T03:02:07.306Z,690.00
2023-05-09T03:03:07.362Z,684.00
2023-05-09T03:04:07.284Z,683.00
2023-05-09T03:05:07.289Z,685.00
2023-05-09T03:06:07.271Z,676.00
2023-05-09T03:07:07.283Z,672.00
2023-05-09T03:08:07.332Z,682.00
2023-05-09T03:09:07.414Z,672.00
2023-05-09T03:10:07.455Z,671.00
2023-05-09T03:11:07.504Z,680.00
2023-05-09T03:12:07.569Z,683.00
2023-05-09T03:13:07.672Z,669.00
2023-05-09T03:14:07.741Z,672.00
2023-05-09T03:15:07.722Z,670.00
2023-05-09T03:16:07.794Z,662.00
2023-05-09T03:17:07.801Z,675.00
2023-05-09T03:18:07.891Z,665.00
2023-05-09T03:19:07.906Z,670.00
2023-05-09T03:20:07.954Z,663.00
2023-05-09T03:21:08.020Z,662.00
2023-05-09T03:22:08.079Z,662.00
2023-05-09T03:23:09.001Z,674.00
2023-05-09T03:24:08.188Z,668.00
2023-05-09T03:25:08.258Z,662.00
2023-05-09T03:26:08.294Z,663.00
2023-05-09T03:27:08.349Z,669.00
2023-05-09T03:28:08.405Z,667.00
2023-05-09T03:29:08.460Z,660.00
2023-05-09T03:30:08.607Z,659.00
2023-05-09T03:31:08.578Z,661.00
2023-05-09T03:32:08.627Z,661.00
2023-05-09T03:33:08.699Z,663.00
2023-05-09T03:34:08.731Z,663.00
2023-05-09T03:35:08.775Z,663.00
2023-05-09T03:36:08.844Z,665.00
2023-05-09T03:37:08.876Z,662.00
2023-05-09T03:38:08.925Z,659.00
2023-05-09T03:39:08.991Z,659.00
2023-05-09T03:40:09.035Z,662.00
2023-05-09T03:41:09.098Z,662.00
2023-05-09T03:42:09.116Z,663.00
2023-05-09T03:43:09.178Z,661.00
2023-05-09T03:44:09.227Z,666.00
2023-05-09T03:45:09.270Z,658.00
2023-05-09T03:46:09.441Z,658.00
2023-05-09T03:47:09.376Z,663.00
2023-05-09T03:48:09.457Z,664.00
2023-05-09T03:49:09.484Z,664.00
2023-05-09T03:50:09.536Z,661.00
2023-05-09T03:51:09.585Z,660.00
2023-05-09T03:52:09.666Z,661.00
2023-05-09T03:53:09.700Z,660.00
2023-05-09T03:54:09.753Z,660.00
2023-05-09T03:55:09.827Z,664.00
2023-05-09T03:56:09.859Z,660.00
2023-05-09T03:57:09.957Z,659.00
2023-05-09T03:58:09.969Z,659.00
2023-05-09T03:59:10.013Z,657.00
2023-05-09T04:00:10.080Z,655.00
2023-05-09T04:01:10.120Z,659.00
2023-05-09T04:02:10.210Z,657.00
2023-05-09T04:03:10.469Z,657.00
2023-05-09T04:04:10.355Z,657.00
2023-05-09T04:05:10.349Z,659.00
2023-05-09T04:06:10.386Z,664.00
2023-05-09T04:07:10.442Z,657.00
2023-05-09T04:08:10.495Z,660.00
2023-05-09T04:09:10.557Z,655.00
2023-05-09T04:10:10.596Z,660.00
2023-05-09T04:11:10.653Z,655.00
2023-05-09T04:12:10.709Z,653.00
2023-05-09T04:13:10.809Z,659.00
2023-05-09T04:14:10.825Z,659.00
2023-05-09T04:15:10.869Z,657.00
2023-05-09T04:16:10.955Z,654.00
2023-05-09T04:17:11.017Z,651.00
2023-05-09T04:18:11.128Z,650.00
2023-05-09T04:19:11.125Z,654.00
2023-05-09T04:20:11.150Z,660.00
2023-05-09T04:21:11.203Z,653.00
2023-05-09T04:22:11.252Z,657.00
2023-05-09T04:23:11.320Z,658.00
2023-05-09T04:24:11.365Z,654.00
2023-05-09T04:25:11.423Z,654.00
2023-05-09T04:26:11.487Z,655.00
2023-05-09T04:27:11.528Z,647.00
2023-05-09T04:28:11.586Z,656.00
2023-05-09T04:29:11.652Z,652.00
2023-05-09T04:30:11.694Z,650.00
2023-05-09T04:31:11.784Z,651.00
2023-05-09T04:32:11.839Z,652.00
2023-05-09T04:33:11.870Z,652.00
2023-05-09T04:34:12.021Z,651.00
2023-05-09T04:35:12.134Z,651.00
2023-05-09T04:36:12.031Z,650.00
2023-05-09T04:37:12.088Z,653.00
2023-05-09T04:38:12.150Z,656.00
2023-05-09T04:39:12.203Z,655.00
2023-05-09T04:40:12.257Z,651.00
2023-05-09T04:41:12.321Z,646.00
2023-05-09T04:42:12.383Z,651.00
2023-05-09T04:43:12.972Z,654.00
2023-05-09T04:44:12.483Z,644.00
2023-05-09T04:45:12.842Z,646.00
2023-05-09T04:46:12.607Z,655.00
2023-05-09T04:47:12.654Z,650.00
2023-05-09T04:48:12.700Z,654.00
2023-05-09T04:49:12.774Z,654.00
2023-05-09T04:50:12.889Z,652.00
2023-05-09T04:51:12.858Z,650.00
2023-05-09T04:52:12.911Z,651.00
2023-05-09T04:53:12.955Z,650.00
2023-05-09T04:54:13.018Z,650.00
2023-05-09T04:55:13.221Z,650.00
2023-05-09T04:56:13.109Z,647.00
2023-05-09T04:57:17.736Z,650.00
2023-05-09T04:58:14.170Z,650.00
2023-05-09T04:59:13.165Z,651.00
2023-05-09T05:00:13.150Z,652.00
2023-05-09T05:01:13.198Z,652.00
2023-05-09T05:02:13.162Z,650.00
2023-05-09T05:03:13.123Z,651.00
2023-05-09T05:04:13.175Z,647.00
2023-05-09T05:05:13.118Z,649.00
2023-05-09T05:06:13.189Z,648.00
2023-05-09T05:07:13.133Z,653.00
2023-05-09T05:08:13.189Z,649.00
2023-05-09T05:09:13.244Z,647.00
2023-05-09T05:10:13.314Z,649.00
2023-05-09T05:11:13.347Z,649.00
2023-05-09T05:12:13.752Z,644.00
2023-05-09T05:13:13.983Z,650.00
2023-05-09T05:14:13.656Z,647.00
2023-05-09T05:15:13.809Z,645.00
2023-05-09T05:16:13.686Z,647.00
2023-05-09T05:17:13.705Z,652.00
2023-05-09T05:18:13.770Z,663.00
2023-05-09T05:19:13.812Z,673.00
2023-05-09T05:20:13.861Z,688.00
2023-05-09T05:21:13.937Z,693.00
2023-05-09T05:22:14.217Z,718.00
2023-05-09T05:23:14.004Z,717.00
2023-05-09T05:24:14.051Z,729.00
2023-05-09T05:25:14.286Z,748.00
2023-05-09T05:26:14.138Z,757.00
2023-05-09T05:27:14.208Z,791.00
2023-05-09T05:28:14.266Z,792.00
2023-05-09T05:29:14.342Z,806.00
2023-05-09T05:30:14.398Z,813.00
2023-05-09T05:31:14.470Z,814.00
2023-05-09T05:32:14.653Z,814.00
2023-05-09T05:33:14.553Z,785.00
2023-05-09T05:34:14.624Z,762.00
2023-05-09T05:35:14.972Z,741.00
2023-05-09T05:36:14.721Z,727.00
2023-05-09T05:37:14.754Z,724.00
2023-05-09T05:38:14.906Z,726.00
2023-05-09T05:39:14.861Z,727.00
2023-05-09T05:40:14.909Z,731.00
2023-05-09T05:41:14.975Z,754.00
2023-05-09T05:42:15.031Z,764.00
2023-05-09T05:43:15.113Z,775.00
2023-05-09T05:44:15.146Z,811.00
2023-05-09T05:45:15.474Z,828.00
2023-05-09T05:46:15.256Z,839.00
2023-05-09T05:47:15.295Z,878.00
2023-05-09T05:48:15.357Z,886.00
2023-05-09T05:49:15.400Z,909.00
2023-05-09T05:50:15.452Z,910.00
2023-05-09T05:51:15.536Z,914.00
2023-05-09T05:52:15.564Z,926.00
2023-05-09T05:53:15.607Z,918.00
2023-05-09T05:54:15.761Z,921.00
2023-05-09T05:55:15.979Z,945.00
2023-05-09T05:56:15.751Z,953.00
2023-05-09T05:57:15.799Z,964.00
2023-05-09T05:58:15.850Z,961.00
2023-05-09T05:59:15.886Z,968.00
2023-05-09T06:00:15.942Z,981.00
2023-05-09T06:01:15.966Z,965.00
2023-05-09T06:02:16.064Z,974.00
2023-05-09T06:03:16.208Z,975.00
2023-05-09T06:04:16.200Z,989.00
2023-05-09T06:05:16.416Z,997.00
2023-05-09T06:06:16.174Z,1000.00
2023-05-09T06:07:16.219Z,1023.00
2023-05-09T06:08:16.272Z,1040.00
2023-05-09T06:09:16.299Z,1011.00
2023-05-09T06:10:16.443Z,973.00
2023-05-09T06:11:16.406Z,945.00
2023-05-09T06:12:16.462Z,937.00
2023-05-09T06:13:16.575Z,948.00
2023-05-09T06:14:16.603Z,965.00
2023-05-09T06:15:16.833Z,960.00
2023-05-09T06:16:20.073Z,974.00
2023-05-09T06:17:16.943Z,990.00
2023-05-09T06:18:16.681Z,1002.00
2023-05-09T06:19:16.656Z,1003.00
2023-05-09T06:20:16.650Z,1017.00
2023-05-09T06:21:16.635Z,1008.00
2023-05-09T06:22:16.646Z,1036.00
2023-05-09T06:23:16.612Z,1043.00
2023-05-09T06:24:27.612Z,1068.00
2023-05-09T06:25:17.635Z,1069.00
2023-05-09T06:26:16.690Z,1077.00
2023-05-09T06:27:16.590Z,1088.00
2023-05-09T06:28:16.585Z,1110.00
2023-05-09T06:29:16.587Z,1145.00
2023-05-09T06:30:25.356Z,1164.00
2023-05-09T06:31:17.590Z,1164.00
2023-05-09T06:32:16.548Z,1165.00
2023-05-09T06:33:16.536Z,1156.00
2023-05-09T06:34:16.539Z,1169.00
2023-05-09T06:35:16.689Z,1157.00
2023-05-09T06:36:16.525Z,1152.00
2023-05-09T06:37:16.514Z,1154.00
2023-05-09T06:38:16.509Z,1158.00
2023-05-09T06:39:16.495Z,1166.00
2023-05-09T06:40:16.552Z,1183.00
2023-05-09T06:41:16.598Z,1190.00
2023-05-09T06:42:16.705Z,1178.00
2023-05-09T06:43:16.710Z,1193.00
2023-05-09T06:44:16.757Z,1187.00
2023-05-09T06:45:17.274Z,1187.00
2023-05-09T06:46:16.875Z,1186.00
2023-05-09T06:47:16.894Z,1195.00
2023-05-09T06:48:16.953Z,1201.00
2023-05-09T06:49:17.009Z,1205.00
2023-05-09T06:50:17.050Z,1203.00
2023-05-09T06:51:17.114Z,1219.00
2023-05-09T06:52:17.156Z,1212.00
2023-05-09T06:53:17.253Z,1201.00
2023-05-09T06:54:17.268Z,1211.00
2023-05-09T06:55:17.457Z,1215.00
2023-05-09T06:56:19.928Z,1216.00
2023-05-09T06:57:17.381Z,1218.00
2023-05-09T06:58:17.460Z,1204.00
2023-05-09T06:59:17.369Z,1214.00
2023-05-09T07:00:17.365Z,1224.00
2023-05-09T07:01:17.393Z,1219.00
2023-05-09T07:02:17.349Z,1220.00
2023-05-09T07:03:17.338Z,1226.00
2023-05-09T07:04:17.337Z,1232.00
2023-05-09T07:05:17.568Z,1239.00
2023-05-09T07:06:17.315Z,1221.00
2023-05-09T07:07:17.294Z,1238.00
2023-05-09T07:08:17.304Z,1232.00
2023-05-09T07:09:17.292Z,1234.00
2023-05-09T07:10:17.272Z,1225.00
2023-05-09T07:11:17.270Z,1209.00
2023-05-09T07:12:17.262Z,1211.00
2023-05-09T07:13:17.313Z,1210.00
2023-05-09T07:14:17.348Z,1209.00
2023-05-09T07:15:25.900Z,1237.00
2023-05-09T07:16:18.266Z,1239.00
2023-05-09T07:17:23.276Z,1245.00
2023-05-09T07:18:18.277Z,1239.00
2023-05-09T07:19:17.217Z,1247.00
2023-05-09T07:20:17.247Z,1262.00
2023-05-09T07:21:17.202Z,1276.00
2023-05-09T07:22:17.218Z,1291.00
2023-05-09T07:23:17.196Z,1291.00
2023-05-09T07:24:17.296Z,1282.00
2023-05-09T07:25:17.286Z,1283.00
2023-05-09T07:26:17.177Z,1272.00
2023-05-09T07:27:17.155Z,1259.00
2023-05-09T07:28:17.193Z,1236.00
2023-05-09T07:29:17.226Z,1203.00
2023-05-09T07:30:17.589Z,1199.00
2023-05-09T07:31:17.364Z,1277.00
2023-05-09T07:32:17.370Z,1306.00
2023-05-09T07:33:17.420Z,1325.00
2023-05-09T07:34:17.445Z,1329.00
2023-05-09T07:35:17.487Z,1304.00
2023-05-09T07:36:17.526Z,1289.00
2023-05-09T07:37:17.570Z,1297.00
2023-05-09T07:38:17.646Z,1315.00
2023-05-09T07:39:17.651Z,1314.00
2023-05-09T07:40:17.901Z,1332.00
2023-05-09T07:41:17.722Z,1337.00
2023-05-09T07:42:17.767Z,1335.00
2023-05-09T07:43:17.830Z,1348.00
2023-05-09T07:44:17.842Z,1343.00
2023-05-09T07:45:18.796Z,1349.00
2023-05-09T07:46:18.054Z,1343.00
2023-05-09T07:47:17.930Z,1347.00
2023-05-09T07:48:17.970Z,1341.00
2023-05-09T07:49:18.007Z,1353.00
2023-05-09T07:50:18.108Z,1347.00
2023-05-09T07:51:18.082Z,1342.00
2023-05-09T07:52:18.125Z,1344.00
2023-05-09T07:53:18.149Z,1352.00
2023-05-09T07:54:18.194Z,1345.00
2023-05-09T07:55:18.410Z,1337.00
2023-05-09T07:56:18.416Z,1341.00
2023-05-09T07:57:18.264Z,1335.00
2023-05-09T07:58:18.301Z,1346.00
2023-05-09T07:59:18.338Z,1345.00
2023-05-09T08:00:18.406Z,1330.00
2023-05-09T08:01:18.407Z,1340.00
2023-05-09T08:02:18.565Z,1327.00
2023-05-09T08:03:18.606Z,1319.00
2023-05-09T08:04:18.552Z,1320.00
2023-05-09T08:05:18.548Z,1321.00
2023-05-09T08:06:18.583Z,1324.00
2023-05-09T08:07:18.637Z,1313.00
2023-05-09T08:08:18.682Z,1315.00
2023-05-09T08:09:18.724Z,1314.00
2023-05-09T08:10:18.762Z,1327.00
2023-05-09T08:11:18.805Z,1343.00
2023-05-09T08:12:18.861Z,1355.00
2023-05-09T08:13:18.972Z,1348.00
2023-05-09T08:14:18.966Z,1339.00
2023-05-09T08:15:19.034Z,1348.00
2023-05-09T08:16:19.106Z,1345.00
2023-05-09T08:17:19.136Z,1358.00
2023-05-09T08:18:19.340Z,1385.00
2023-05-09T08:19:19.965Z,1412.00
2023-05-09T08:20:19.290Z,1404.00
2023-05-09T08:21:21.532Z,1440.00
2023-05-09T08:22:19.332Z,1435.00
2023-05-09T08:23:19.326Z,1464.00
2023-05-09T08:24:19.348Z,1438.00
2023-05-09T08:25:19.313Z,1386.00
2023-05-09T08:26:19.312Z,1370.00
2023-05-09T08:27:19.309Z,1432.00
2023-05-09T08:28:19.290Z,1444.00
2023-05-09T08:29:19.288Z,1434.00
2023-05-09T08:30:19.266Z,1406.00
2023-05-09T08:31:19.291Z,1384.00
2023-05-09T08:32:19.244Z,1397.00
2023-05-09T08:33:19.258Z,1395.00
2023-05-09T08:34:19.327Z,1397.00
2023-05-09T08:35:19.205Z,1440.00
2023-05-09T08:36:19.197Z,1428.00
2023-05-09T08:37:19.198Z,1426.00
2023-05-09T08:38:19.207Z,1418.00
2023-05-09T08:39:19.198Z,1415.00
2023-05-09T08:40:19.186Z,1408.00
2023-05-09T08:41:19.177Z,1402.00
2023-05-09T08:42:19.173Z,1399.00
2023-05-09T08:43:19.134Z,1386.00
2023-05-09T08:44:19.132Z,1388.00
2023-05-09T08:45:19.203Z,1382.00
2023-05-09T08:46:19.134Z,1365.00
2023-05-09T08:47:19.104Z,1359.00
2023-05-09T08:48:19.185Z,1346.00
2023-05-09T08:49:19.546Z,1331.00
2023-05-09T08:50:19.186Z,1315.00
2023-05-09T08:51:19.078Z,1300.00
2023-05-09T08:52:19.065Z,1278.00
2023-05-09T08:53:19.054Z,1257.00
2023-05-09T08:54:20.697Z,1257.00
2023-05-09T08:55:19.046Z,1257.00
2023-05-09T08:56:19.098Z,1244.00
2023-05-09T08:57:19.140Z,1229.00
2023-05-09T08:58:18.992Z,1204.00
2023-05-09T08:59:19.051Z,1188.00
2023-05-09T09:00:20.620Z,1163.00
2023-05-09T09:01:18.990Z,1163.00
2023-05-09T09:02:18.966Z,1145.00
2023-05-09T09:03:18.966Z,1144.00
2023-05-09T09:04:19.045Z,1128.00
2023-05-09T09:05:39.270Z,1132.00
2023-05-09T09:06:20.025Z,1137.00
2023-05-09T09:07:18.932Z,1130.00
2023-05-09T09:08:18.947Z,1134.00
2023-05-09T09:09:18.928Z,1124.00
2023-05-09T09:10:18.906Z,1117.00
2023-05-09T09:11:18.972Z,1120.00
2023-05-09T09:12:18.895Z,1107.00
2023-05-09T09:13:19.845Z,1107.00
2023-05-09T09:14:18.942Z,1109.00
2023-05-09T09:15:18.884Z,1096.00
2023-05-09T09:16:18.964Z,1098.00
2023-05-09T09:17:19.913Z,1101.00
2023-05-09T09:18:18.904Z,1110.00
2023-05-09T09:19:18.899Z,1127.00
2023-05-09T09:20:18.912Z,1160.00
2023-05-09T09:21:18.919Z,1193.00
2023-05-09T09:22:18.977Z,1217.00
2023-05-09T09:23:18.938Z,1197.00
2023-05-09T09:24:18.885Z,1213.00
2023-05-09T09:25:18.885Z,1223.00
2023-05-09T09:26:18.936Z,1233.00
2023-05-09T09:27:18.865Z,1239.00
2023-05-09T09:28:18.900Z,1243.00
2023-05-09T09:29:18.885Z,1256.00
2023-05-09T09:30:18.986Z,1249.00
2023-05-09T09:31:19.032Z,1263.00
2023-05-09T09:32:19.030Z,1262.00
2023-05-09T09:33:18.984Z,1276.00
2023-05-09T09:34:18.989Z,1280.00
2023-05-09T09:35:19.006Z,1292.00
2023-05-09T09:36:19.023Z,1285.00
2023-05-09T09:37:19.066Z,1298.00
2023-05-09T09:38:19.163Z,1282.00
2023-05-09T09:39:19.109Z,1269.00
2023-05-09T09:40:19.208Z,1269.00
2023-05-09T09:41:19.200Z,1249.00
2023-05-09T09:42:19.201Z,1242.00
2023-05-09T09:43:19.254Z,1248.00
2023-05-09T09:44:19.292Z,1236.00
2023-05-09T09:45:19.306Z,1218.00
2023-05-09T09:46:19.439Z,1200.00
2023-05-09T09:47:21.091Z,1190.00
2023-05-09T09:48:20.374Z,1191.00
2023-05-09T09:49:19.414Z,1184.00
2023-05-09T09:50:19.390Z,1164.00
2023-05-09T09:51:19.332Z,1143.00
2023-05-09T09:52:19.335Z,1147.00
2023-05-09T09:53:19.307Z,1136.00
2023-05-09T09:54:19.389Z,1139.00
2023-05-09T09:55:19.316Z,1138.00
2023-05-09T09:56:19.291Z,1133.00
2023-05-09T09:57:19.272Z,1132.00
2023-05-09T09:58:19.288Z,1117.00
2023-05-09T09:59:19.319Z,1121.00
2023-05-09T10:00:19.307Z,1108.00
2023-05-09T10:01:19.308Z,1117.00
2023-05-09T10:02:19.232Z,1107.00
2023-05-09T10:03:19.401Z,1075.00
2023-05-09T10:04:19.229Z,1072.00
2023-05-09T10:05:19.218Z,1067.00
2023-05-09T10:06:19.212Z,1033.00
2023-05-09T10:07:19.204Z,1011.00
2023-05-09T10:08:19.205Z,999.00
2023-05-09T10:09:19.222Z,993.00
2023-05-09T10:10:19.380Z,992.00
2023-05-09T10:11:19.182Z,1001.00
2023-05-09T10:12:19.177Z,994.00
2023-05-09T10:13:19.344Z,992.00
2023-05-09T10:14:19.176Z,979.00
2023-05-09T10:15:19.168Z,967.00
2023-05-09T10:16:21.458Z,969.00
2023-05-09T10:17:20.235Z,970.00
2023-05-09T10:18:19.253Z,963.00
2023-05-09T10:19:19.156Z,971.00
2023-05-09T10:20:19.251Z,943.00
2023-05-09T10:21:19.155Z,925.00
2023-05-09T10:22:19.135Z,913.00
2023-05-09T10:23:19.139Z,900.00
2023-05-09T10:24:19.144Z,899.00
2023-05-09T10:25:19.123Z,872.00
2023-05-09T10:26:19.220Z,874.00
2023-05-09T10:27:19.130Z,882.00
2023-05-09T10:28:19.113Z,875.00
2023-05-09T10:29:19.115Z,900.00
2023-05-09T10:30:19.125Z,907.00
2023-05-09T10:31:19.164Z,906.00
2023-05-09T10:32:19.087Z,912.00
2023-05-09T10:33:19.116Z,919.00
2023-05-09T10:34:19.137Z,934.00
2023-05-09T10:35:19.161Z,930.00
2023-05-09T10:36:19.197Z,915.00
2023-05-09T10:37:19.253Z,936.00
2023-05-09T10:38:19.265Z,928.00
2023-05-09T10:39:19.350Z,905.00
2023-05-09T10:40:19.346Z,916.00
2023-05-09T10:41:19.386Z,903.00
2023-05-09T10:42:19.522Z,919.00
2023-05-09T10:43:19.441Z,905.00
2023-05-09T10:44:19.484Z,889.00
